Latest Weather Observations for Mount Gellibrand

IDV60801

Issued at 3:42 pm EDT Saturday 22 February 2020 (issued every 10 minutes, with the page automatically refreshed every 10 minutes)

About weather observations | Map of weather stations | Latest weather observations for VIC | Other Formats
Station Details ID: 090035 Name: MOUNT GELLIBRAND Lat: -38.23 Lon: 143.79 Height: 261.0 m
Data from the previous 72 hours. | See also: Recent months at Mount Gellibrand
Date/Time
EDT
Temp
°C
App
Temp
°C
Dew
Point
°C
Rel
Hum
%
Delta-T
°C
Wind Press
QNH
hPa
Press
MSL
hPa
Rain since
9am
mm
Dir  Spd
km/h
Gust
km/h
Spd
kts
Gust
kts
22/03:30pm 19.4 15.9 10.1 55 5.0 ESE 19 35 10 19 1022.6 1021.8 0.0
22/03:00pm 20.4 16.8 10.5 53 5.4 E 20 28 11 15 1022.7 1022.0 0.0
22/02:30pm 19.6 16.1 10.3 55 5.1 SE 19 26 10 14 1023.0 1022.3 0.0
22/02:00pm 20.1 17.1 10.8 55 5.1 SE 17 28 9 15 1023.2 1022.5 0.0
22/01:30pm 18.2 15.1 10.3 60 4.3 SE 17 22 9 12 1023.4 1022.7 0.0
22/01:00pm 19.4 15.7 9.6 53 5.2 ESE 19 24 10 13 1023.7 1023.0 0.0
22/12:30pm 18.0 14.3 10.1 60 4.3 ESE 20 30 11 16 1024.2 1023.4 0.0
22/12:00pm 17.7 14.4 11.5 67 3.4 ESE 20 30 11 16 1024.5 1023.7 0.0
22/11:30am 16.4 13.2 12.0 75 2.4 ESE 20 28 11 15 1024.6 1023.8 0.0
22/11:00am 14.9 12.3 11.9 82 1.6 E 17 22 9 12 1024.6 1023.8 0.0
22/10:30am 14.5 12.8 12.4 87 1.2 ESE 13 19 7 10 1024.4 1023.6 0.0
22/10:00am 13.5 12.5 12.2 92 0.7 ESE 9 15 5 8 1024.6 1023.8 0.0
22/09:30am 13.1 11.2 11.8 92 0.7 SE 13 19 7 10 1024.4 1023.6 0.0
22/09:00am 12.9 10.5 11.5 91 0.7 SE 15 19 8 10 1024.1 1023.3 0.8
22/08:30am 11.8 9.7 11.0 95 0.4 SE 13 17 7 9 1023.7 1023.0 0.8
22/08:00am 11.3 9.1 10.7 96 0.3 SSE 13 17 7 9 1023.4 1022.7 0.8
22/07:30am 10.2 7.0 10.1 99 0.1 SSE 17 22 9 12 1023.0 1022.3 0.8
22/07:00am 10.3 7.1 10.0 98 0.2 SSE 17 19 9 10 1022.8 1022.1 0.8
22/06:30am 10.0 7.6 10.0 100 0.0 SSE 13 17 7 9 1022.7 1022.0 0.8
22/06:00am 9.8 6.5 9.7 99 0.1 SSE 17 20 9 11 1022.4 1021.6 0.8
22/05:30am 9.6 6.3 9.6 100 0.0 SSE 17 20 9 11 1022.4 1021.6 0.8
22/05:00am 9.6 6.7 9.5 99 0.1 SSE 15 19 8 10 1022.3 1021.5 0.8
22/04:30am 10.1 7.9 9.3 95 0.4 SSE 11 13 6 7 1022.5 1021.7 0.8
22/04:00am 10.7 8.9 9.5 92 0.6 SSE 9 11 5 6 1022.6 1021.8 0.8
22/03:30am 10.9 9.2 9.7 92 0.6 SSE 9 11 5 6 1022.8 1022.1 0.8
22/03:00am 10.6 8.4 9.2 91 0.7 SE 11 15 6 8 1023.0 1022.3 0.8
22/02:30am 10.8 7.8 9.2 90 0.8 SSE 15 17 8 9 1023.2 1022.5 0.8
22/02:00am 10.7 8.1 9.3 91 0.7 SSE 13 15 7 8 1023.4 1022.7 0.8
22/01:30am 10.6 8.0 9.5 93 0.6 SSE 13 17 7 9 1023.6 1022.9 0.8
22/01:00am 10.7 8.2 9.6 93 0.6 SE 13 15 7 8 1023.7 1023.0 0.8
22/12:30am 11.2 8.7 9.8 91 0.7 SSE 13 15 7 8 1023.6 1022.9 0.8
22/12:00am 11.2 9.0 9.3 88 1.0 S 11 13 6 7 1023.6 1022.9 0.8
 
Date/Time
EDT
Temp
°C
App
Temp
°C
Dew
Point
°C
Rel
Hum
%
Delta-T
°C
Wind Press
QNH
hPa
Press
MSL
hPa
Rain since
9am
mm
Dir  Spd
km/h
Gust
km/h
Spd
kts
Gust
kts
21/11:30pm 11.5 9.7 9.4 87 1.1 SSE 9 11 5 6 1023.6 1022.9 0.8
21/11:00pm 11.8 10.1 10.0 89 0.9 SSE 9 11 5 6 1023.5 1022.8 0.8
21/10:30pm 11.7 9.3 9.9 89 0.9 SSE 13 15 7 8 1023.4 1022.7 0.8
21/10:00pm 11.8 9.0 10.0 89 0.9 SSE 15 19 8 10 1023.2 1022.5 0.8
21/09:30pm 11.7 8.0 9.4 86 1.2 SSE 19 22 10 12 1022.8 1022.1 0.8
21/09:00pm 12.2 7.4 9.0 81 1.6 SSE 24 28 13 15 1022.5 1021.7 0.8
21/08:30pm 12.3 8.4 9.3 82 1.5 SSE 20 26 11 14 1022.3 1021.5 0.8
21/08:00pm 13.2 8.9 9.3 77 2.0 SSE 22 28 12 15 1021.9 1021.1 0.8
21/07:30pm 13.6 8.5 9.3 75 2.2 SSE 26 33 14 18 1021.7 1020.9 0.8
21/07:00pm 14.8 8.9 9.0 68 3.0 SSE 30 41 16 22 1021.3 1020.5 0.8
21/06:30pm 15.3 9.0 7.6 60 3.9 SSE 30 37 16 20 1021.2 1020.4 0.8
21/06:00pm 15.1 8.4 8.1 63 3.5 SSE 33 44 18 24 1020.8 1020.0 0.8
21/05:30pm 17.3 12.2 7.6 53 5.0 SE 24 35 13 19 1020.7 1019.9 0.8
21/05:00pm 17.5 12.9 6.7 49 5.4 SSE 20 33 11 18 1020.7 1019.9 0.8
21/04:30pm 17.6 13.0 6.5 48 5.6 SSE 20 32 11 17 1020.7 1019.9 0.8
21/04:00pm 18.5 13.4 6.0 44 6.2 S 22 35 12 19 1020.8 1020.0 0.8
21/03:30pm 18.5 14.5 6.7 46 6.0 S 17 28 9 15 1021.0 1020.2 0.8
21/03:00pm 19.3 14.9 7.4 46 6.1 S 20 32 11 17 1021.1 1020.3 0.8
21/02:30pm 18.3 14.4 8.8 54 5.0 S 19 28 10 15 1021.3 1020.5 0.8
21/02:00pm 18.9 14.4 10.2 57 4.7 SSE 24 33 13 18 1021.4 1020.6 0.8
21/01:30pm 18.2 14.4 11.0 63 3.9 SSE 22 32 12 17 1021.5 1020.7 0.8
21/01:00pm 16.2 12.8 12.6 79 2.0 S 22 35 12 19 1021.5 1020.7 0.8
21/12:30pm 14.6 12.5 14.6 100 0.0 SSE 19 30 10 16 1021.7 1020.9 0.8
21/12:00pm 13.3 10.5 13.3 100 0.0 S 20 24 11 13 1021.7 1020.9 0.8
21/11:30am 14.0 13.2 14.0 100 0.0 SSE 11 15 6 8 1021.6 1020.8 0.6
21/11:00am 12.6 9.2 12.6 100 0.0 S 22 30 12 16 1021.4 1020.6 0.4
21/10:30am 15.4 14.2 12.9 85 1.4 SSE 11 20 6 11 1021.1 1020.3 0.0
21/10:00am 14.2 14.2 14.2 100 0.0 SSW 7 15 4 8 1020.9 1020.1 0.0
21/09:30am 13.1 10.5 13.1 100 0.0 SW 19 20 10 11 1020.7 1019.9 0.0
21/09:00am 12.9 10.2 12.9 100 0.0 SSW 19 22 10 12 1020.2 1019.4 0.0
21/08:30am 12.6 11.3 12.6 100 0.0 SW 11 15 6 8 1019.7 1019.0 0.0
21/08:00am 11.7 9.8 11.7 100 0.0 SW 13 17 7 9 1019.4 1018.7 0.0
21/07:30am 11.8 9.9 11.8 100 0.0 WSW 13 15 7 8 1018.9 1018.1 0.0
21/07:00am 11.6 9.6 11.6 100 0.0 SW 13 17 7 9 1018.6 1017.8 0.0
21/06:30am 11.1 8.2 11.1 100 0.0 WSW 17 19 9 10 1018.2 1017.4 0.0
21/06:00am 11.4 8.6 11.4 100 0.0 WSW 17 20 9 11 1018.1 1017.3 0.0
21/05:30am 11.2 8.4 11.2 100 0.0 WSW 17 20 9 11 1018.1 1017.3 0.0
21/05:00am 11.1 8.6 11.1 100 0.0 WSW 15 17 8 9 1017.9 1017.1 0.0
21/04:30am 10.7 8.5 10.7 100 0.0 WSW 13 13 7 7 1017.9 1017.1 0.0
21/04:00am 10.5 7.8 10.5 100 0.0 WSW 15 19 8 10 1017.9 1017.1 0.0
21/03:30am 10.4 7.3 10.4 100 0.0 WSW 17 20 9 11 1018.1 1017.3 0.0
21/03:00am 10.1 7.7 10.1 100 0.0 W 13 19 7 10 1018.1 1017.3 0.0
21/02:30am 10.2 7.5 10.2 100 0.0 WSW 15 17 8 9 1018.3 1017.5 0.0
21/02:00am 10.6 8.3 10.6 100 0.0 WSW 13 15 7 8 1018.4 1017.6 0.0
21/01:30am 10.4 7.7 10.4 100 0.0 WSW 15 17 8 9 1018.6 1017.8 0.0
21/01:00am 11.1 10.1 11.1 100 0.0 SW 7 9 4 5 1018.5 1017.7 0.0
21/12:30am 11.8 9.0 11.3 97 0.3 SW 17 24 9 13 1018.7 1017.9 0.0
21/12:00am 12.0 11.1 11.2 95 0.4 SSW 7 9 4 5 1018.7 1017.9 0.0
 
Date/Time
EDT
Temp
°C
App
Temp
°C
Dew
Point
°C
Rel
Hum
%
Delta-T
°C
Wind Press
QNH
hPa
Press
MSL
hPa
Rain since
9am
mm
Dir  Spd
km/h
Gust
km/h
Spd
kts
Gust
kts
20/11:30pm 12.2 9.7 11.1 93 0.6 SW 15 20 8 11 1018.8 1018.0 0.0
20/11:00pm 12.1 8.2 10.7 91 0.7 SW 22 30 12 16 1018.9 1018.1 0.0
20/10:30pm 11.3 7.7 10.4 94 0.5 SSW 20 26 11 14 1018.7 1017.9 0.0
20/10:00pm 11.4 6.9 10.1 92 0.7 SW 24 30 13 16 1018.4 1017.6 0.0
20/09:30pm 11.6 7.4 11.1 97 0.3 SSW 24 32 13 17 1018.0 1017.2 0.0
20/09:00pm 11.8 6.9 11.2 96 0.3 SW 28 35 15 19 1017.4 1016.6 0.0
20/08:30pm 12.5 7.5 10.9 90 0.8 SW 28 41 15 22 1017.2 1016.4 0.0
20/08:00pm 12.9 7.5 11.0 88 1.0 SW 30 37 16 20 1016.9 1016.1 0.0
20/07:30pm 13.4 7.1 10.9 85 1.3 SW 35 41 19 22 1016.4 1015.6 0.0
20/07:00pm 14.6 8.8 11.4 81 1.7 SW 33 43 18 23 1016.0 1015.1 0.0
20/06:30pm 16.2 11.8 10.3 68 3.2 SW 24 32 13 17 1015.9 1015.0 0.0
20/06:00pm 16.3 11.3 11.0 71 2.9 SW 28 35 15 19 1015.6 1014.8 0.0
20/05:30pm 17.9 13.5 9.0 56 4.7 WSW 22 30 12 16 1015.4 1014.6 0.0
20/05:00pm 17.8 15.6 9.4 58 4.5 SSW 11 20 6 11 1015.6 1014.8 0.0
20/04:30pm 17.3 14.4 9.7 61 4.0 SW 15 26 8 14 1015.6 1014.8 0.0
20/04:00pm 17.7 14.8 9.8 60 4.2 WSW 15 26 8 14 1015.9 1015.0 0.0
20/03:30pm 18.3 13.8 10.2 59 4.4 WSW 24 33 13 18 1016.0 1015.1 0.0
20/03:00pm 18.0 14.4 9.9 59 4.3 WSW 19 26 10 14 1016.4 1015.6 0.0
20/02:30pm 16.6 14.2 10.0 65 3.5 SW 13 24 7 13 1016.7 1015.9 0.0
20/02:00pm 16.0 13.7 10.3 69 3.0 SW 13 19 7 10 1016.9 1016.1 0.0
20/01:30pm 16.5 13.8 9.0 61 3.9 SW 13 22 7 12 1016.9 1016.1 0.0
20/01:00pm 16.0 12.4 8.5 61 3.9 SW 17 24 9 13 1017.2 1016.4 0.0
20/12:30pm 15.4 13.1 8.9 65 3.4 SSW 11 20 6 11 1017.4 1016.6 0.0
20/12:00pm 14.7 10.5 8.4 66 3.2 SW 20 32 11 17 1017.5 1016.7 0.0
20/11:30am 14.9 10.4 8.6 66 3.2 SSW 22 33 12 18 1017.4 1016.6 0.0
20/11:00am 13.8 9.5 9.3 74 2.3 SW 22 28 12 15 1017.2 1016.4 0.0
20/10:30am 14.2 10.6 10.0 76 2.2 SW 19 26 10 14 1017.0 1016.2 0.0
20/10:00am 13.7 9.5 9.6 76 2.1 SW 22 28 12 15 1016.7 1015.9 0.0
20/09:30am 12.9 8.9 9.2 78 1.9 SW 20 26 11 14 1016.4 1015.6 0.0
20/09:00am 12.8 9.1 9.6 81 1.7 SW 19 26 10 14 1016.4 1015.6 0.0
20/08:30am 12.3 8.9 9.1 81 1.6 SW 17 22 9 12 1016.0 1015.1 0.0
20/08:00am 12.0 7.7 9.4 84 1.3 SW 22 30 12 16 1015.6 1014.8 0.0
20/07:30am 11.8 8.1 9.5 86 1.2 SW 19 24 10 13 1015.4 1014.6 0.0
20/07:00am 11.7 8.5 9.8 88 1.0 WSW 17 20 9 11 1015.0 1014.2 0.0
20/06:30am 11.6 9.6 10.2 91 0.7 WSW 11 17 6 9 1014.8 1014.0 0.0
20/06:00am 11.6 9.6 10.0 90 0.8 WSW 11 15 6 8 1014.6 1013.8 0.0
20/05:30am 11.7 9.1 9.3 85 1.2 WSW 13 17 7 9 1014.5 1013.7 0.0
20/05:00am 11.8 9.0 8.6 81 1.6 SW 13 17 7 9 1014.5 1013.7 0.0
20/04:30am 12.0 8.4 8.3 78 1.8 SW 17 26 9 14 1014.6 1013.8 0.0
20/04:00am 11.9 8.0 8.7 81 1.6 SSW 19 22 10 12 1014.6 1013.8 0.0
20/03:30am 12.0 8.6 9.2 83 1.4 SSW 17 24 9 13 1014.5 1013.7 0.0
20/03:00am 12.0 8.0 9.2 83 1.4 SSW 20 28 11 15 1014.7 1013.9 0.0
20/02:30am 12.0 8.8 9.9 87 1.1 SW 17 24 9 13 1015.0 1014.2 0.0
20/02:00am 12.2 7.2 9.6 84 1.3 SW 26 35 14 19 1015.0 1014.2 0.0
20/01:30am 12.2 9.2 10.6 90 0.8 SW 17 22 9 12 1015.2 1014.4 0.0
20/01:00am 12.3 9.3 10.5 89 0.9 SW 17 22 9 12 1015.0 1014.2 0.0
20/12:30am 12.4 9.0 10.5 88 1.0 SW 19 22 10 12 1015.0 1014.2 0.0
20/12:00am 12.5 9.6 11.1 91 0.7 WSW 17 22 9 12 1015.2 1014.4 0.0
 
Date/Time
EDT
Temp
°C
App
Temp
°C
Dew
Point
°C
Rel
Hum
%
Delta-T
°C
Wind Press
QNH
hPa
Press
MSL
hPa
Rain since
9am
mm
Dir  Spd
km/h
Gust
km/h
Spd
kts
Gust
kts
19/11:30pm 12.6 9.2 10.7 88 1.0 WSW 19 24 10 13 1015.3 1014.5 0.0
19/11:00pm 12.7 9.2 10.2 85 1.3 SW 19 22 10 12 1015.3 1014.5 0.0
19/10:30pm 12.7 8.2 10.1 84 1.4 SW 24 32 13 17 1015.3 1014.5 0.0
19/10:00pm 13.1 9.7 11.2 88 1.0 SW 20 30 11 16 1015.0 1014.2 0.0
19/09:30pm 13.2 9.8 11.3 88 1.0 SW 20 28 11 15 1014.8 1014.0 0.0
19/09:00pm 13.3 8.2 10.5 83 1.5 SW 28 35 15 19 1014.8 1014.0 0.0
19/08:30pm 13.5 9.4 11.4 87 1.1 SW 24 30 13 16 1014.6 1013.8 0.0
19/08:00pm 13.5 8.2 11.4 87 1.1 SW 30 39 16 21 1014.2 1013.4 0.0
19/07:30pm 14.4 8.1 11.0 80 1.8 SW 35 46 19 25 1013.6 1012.8 0.0
19/07:00pm 14.7 8.5 11.5 81 1.7 SW 35 43 19 23 1013.5 1012.7 0.0
19/06:30pm 15.4 7.8 10.6 73 2.6 SW 41 50 22 27 1013.1 1012.3 0.0
19/06:00pm 15.3 9.0 12.4 83 1.6 SW 37 46 20 25 1013.0 1012.2 0.0
19/05:30pm 14.3 9.0 14.3 100 0.0 SSW 35 46 19 25 1013.2 1012.4 0.0
19/05:07pm 16.9 11.1 10.7 67 3.4 SSW 32 43 17 23 1012.9 1012.1 0.0
19/05:00pm 17.9 10.2 10.3 61 4.1 SSW 41 54 22 29 1012.8 1012.0 0.0
19/04:31pm 17.1 10.2 10.2 64 3.7 SW 37 57 20 31 1012.4 1011.5 0.0
19/04:30pm 17.2 10.2 10.1 63 3.8 SW 37 50 20 27 1012.5 1011.6 0.0
19/04:00pm 17.7 11.0 11.0 65 3.7 SSW 37 54 20 29 1012.1 1011.2 0.0
19/03:57pm 16.8 11.0 11.5 71 2.9 SSW 33 54 18 29 1012.2 1011.3 0.0

Other formats

Comma delimited format used in spreadsheet applications
http://www.bom.gov.au/fwo/IDV60801/IDV60801.95845.axf

JavaScript Object Notation format (JSON) in row-major order
http://www.bom.gov.au/fwo/IDV60801/IDV60801.95845.json

Data quality

Most of these data are generated automatically and are frequently updated. Quality checks on data are not normally performed. It is possible for incorrect values to appear. Refer to information at About Latest Weather Observations and please check the disclaimer before using these data.